.
WxDataArchive / Data Records for 2015-08-18
2015-08-17 August 2015 2015-08-19

Data Records for Tuesday, 18 August 2015

Time	Temp	Chill	HIndex	Humid	Dewpt	 Wind 	HiWind	WindDir	Rain 	Barom
-----	----	-----	------	-----	-----	------	------	-------	-----	-----
00:00	67.8	67.8	67.8	95	66.3	0	0	---	0.00	29.965 
00:05	67.8	67.8	67.8	95	66.3	0	0	---	0.00	29.965 
00:10	67.8	67.8	67.8	95	66.3	0	0	---	0.00	29.965 
00:15	67.6	67.6	67.6	95	66.1	0	0	---	0.00	29.961 
00:20	67.6	67.6	67.6	95	66.1	0	0	---	0.00	29.961 
00:25	67.6	67.6	67.6	95	66.1	0	0	---	0.00	29.961 
00:30	67.6	67.6	67.6	95	66.1	0	0	---	0.00	29.962 
00:35	67.4	67.4	67.4	95	65.9	0	0	---	0.00	29.962 
00:40	67.4	67.4	67.4	95	65.9	0	0	---	0.00	29.962 
00:45	67.3	67.3	67.3	95	65.8	0	0	---	0.00	29.961 
00:50	67.3	67.3	67.3	95	65.8	0	0	---	0.00	29.961 
00:55	67.3	67.3	67.3	95	65.8	0	0	---	0.00	29.961 
01:00	67.1	67.1	67.1	95	65.6	0	0	---	0.00	29.959 
01:05	67.1	67.1	67.1	95	65.6	0	0	---	0.00	29.959 
01:10	67.1	67.1	67.1	95	65.6	0	1	270	0.00	29.959 
01:15	66.9	66.9	66.9	95	65.4	0	0	---	0.00	29.956 
01:20	66.9	66.9	66.9	95	65.4	0	0	---	0.00	29.956 
01:25	66.8	66.8	66.8	95	65.3	0	0	---	0.00	29.956 
01:30	66.8	66.8	66.8	95	65.3	0	0	---	0.00	29.959 
01:35	66.6	66.6	66.6	95	65.1	0	0	---	0.00	29.959 
01:40	66.6	66.6	66.6	95	65.1	0	0	---	0.00	29.959 
01:45	66.6	66.6	66.6	95	65.1	0	0	---	0.00	29.954 
01:50	66.6	66.6	66.6	96	65.4	0	0	---	0.00	29.954 
01:55	66.6	66.6	66.6	96	65.4	0	0	---	0.00	29.954 
02:00	66.6	66.6	66.6	96	65.4	0	0	---	0.00	29.953 
02:05	66.6	66.6	66.6	96	65.4	0	0	---	0.00	29.953 
02:10	66.6	66.6	66.6	96	65.4	0	0	---	0.00	29.953 
02:15	66.6	66.6	66.6	96	65.4	0	0	---	0.00	29.947 
02:20	66.6	66.6	66.6	96	65.4	0	0	---	0.00	29.947 
02:25	66.6	66.6	66.6	96	65.4	0	0	---	0.00	29.947 
02:30	66.4	66.4	66.4	96	65.2	0	0	---	0.00	29.942 
02:35	66.4	66.4	66.4	96	65.2	0	0	---	0.00	29.942 
02:40	66.4	66.4	66.4	96	65.2	0	0	---	0.00	29.942 
02:45	66.4	66.4	66.4	96	65.2	0	0	---	0.00	29.939 
02:50	66.4	66.4	66.4	96	65.2	0	0	---	0.00	29.939 
02:55	66.3	66.3	66.3	96	65.1	0	0	---	0.00	29.939 
03:00	66.3	66.3	66.3	96	65.1	0	0	---	0.00	29.936 
03:05	66.3	66.3	66.3	96	65.1	0	0	---	0.00	29.936 
03:10	66.1	66.1	66.1	96	64.9	0	0	---	0.00	29.936 
03:15	66.1	66.1	66.1	96	64.9	0	0	---	0.00	29.933 
03:20	66.1	66.1	66.1	96	64.9	0	0	---	0.00	29.933 
03:25	66.0	66.0	66.0	96	64.8	0	0	---	0.00	29.933 
03:30	66.0	66.0	66.0	96	64.8	0	0	---	0.00	29.924 
03:35	66.0	66.0	66.0	96	64.8	0	0	---	0.00	29.924 
03:40	66.0	66.0	66.0	96	64.8	0	0	---	0.00	29.924 
03:45	66.0	66.0	66.0	96	64.8	0	0	---	0.00	29.920 
03:50	65.8	65.8	65.8	96	64.6	0	0	---	0.00	29.920 
03:55	65.6	65.6	65.6	96	64.4	0	0	---	0.00	29.920 
04:00	65.6	65.6	65.6	96	64.4	0	0	---	0.00	29.917 
04:05	65.5	65.5	65.5	96	64.3	0	0	---	0.00	29.917 
04:10	65.5	65.5	65.5	96	64.3	0	0	---	0.00	29.917 
04:15	65.5	65.5	65.5	96	64.3	0	0	---	0.00	29.910 
04:20	65.3	65.3	65.3	96	64.1	0	0	---	0.00	29.910 
04:25	65.3	65.3	65.3	96	64.1	0	0	---	0.00	29.910 
04:30	65.3	65.3	65.3	96	64.1	0	0	---	0.00	29.908 
04:35	65.3	65.3	65.3	96	64.1	0	0	---	0.00	29.908 
04:40	65.2	65.2	65.2	96	64.0	0	0	---	0.00	29.908 
04:45	65.2	65.2	65.2	96	64.0	0	0	---	0.00	29.907 
04:50	65.2	65.2	65.2	96	64.0	0	0	---	0.00	29.907 
04:55	65.0	65.0	65.0	96	63.8	0	0	---	0.00	29.907 
05:00	65.0	65.0	65.0	96	63.8	0	0	---	0.00	29.905 
05:05	64.8	64.8	64.8	96	63.6	0	0	---	0.00	29.905 
05:10	64.7	64.7	64.7	96	63.5	0	0	---	0.00	29.905 
05:15	64.7	64.7	64.7	96	63.5	0	0	---	0.00	29.903 
05:20	64.7	64.7	64.7	96	63.5	0	0	---	0.00	29.903 
05:25	64.5	64.5	64.5	96	63.3	0	0	---	0.00	29.903 
05:30	64.5	64.5	64.5	96	63.3	0	0	---	0.00	29.907 
05:35	64.5	64.5	64.5	96	63.3	0	0	---	0.00	29.907 
05:40	64.3	64.3	64.3	96	63.1	0	0	---	0.00	29.907 
05:45	64.2	64.2	64.2	96	63.0	0	0	---	0.00	29.908 
05:50	64.2	64.2	64.2	96	63.0	0	0	---	0.00	29.908 
05:55	64.0	64.0	64.0	96	62.8	0	0	---	0.00	29.908 
06:00	64.0	64.0	64.0	96	62.8	0	0	---	0.00	29.909 
06:05	64.0	64.0	64.0	96	62.8	0	0	---	0.00	29.909 
06:10	64.0	64.0	64.0	96	62.8	0	0	---	0.00	29.909 
06:15	64.0	64.0	64.0	96	62.8	0	0	---	0.00	29.913 
06:20	64.2	64.2	64.2	96	63.0	0	0	---	0.00	29.913 
06:25	64.2	64.2	64.2	96	63.0	0	0	---	0.00	29.913 
06:30	64.0	64.0	64.0	96	62.8	0	0	---	0.00	29.915 
06:35	64.2	64.2	64.2	96	63.0	0	0	---	0.00	29.915 
06:40	64.2	64.2	64.2	96	63.0	0	0	---	0.00	29.915 
06:45	64.0	64.0	64.0	96	62.8	0	0	---	0.00	29.917 
06:50	64.0	64.0	64.0	96	62.8	0	0	---	0.00	29.917 
06:55	64.0	64.0	64.0	96	62.8	0	0	---	0.00	29.917 
07:00	64.0	64.0	64.0	96	62.8	0	0	---	0.00	29.923 
07:05	64.0	64.0	64.0	96	62.8	0	0	---	0.00	29.923 
07:10	64.0	64.0	64.0	96	62.8	0	0	---	0.00	29.923 
07:15	64.0	64.0	64.0	96	62.8	0	0	---	0.00	29.942 
07:20	64.0	64.0	64.0	96	62.8	0	0	---	0.00	29.942 
07:25	64.2	64.2	64.2	96	63.0	0	0	---	0.00	29.942 
07:30	64.3	64.3	64.3	96	63.1	0	0	---	0.00	29.945 
07:35	64.5	64.5	64.5	96	63.3	0	0	---	0.00	29.945 
07:40	64.8	64.8	64.8	96	63.6	0	0	---	0.00	29.945 
07:45	65.0	65.0	65.0	96	63.8	0	0	---	0.00	29.944 
07:50	65.3	65.3	65.3	96	64.1	0	0	---	0.00	29.944 
07:55	65.6	65.6	65.6	96	64.4	0	0	---	0.00	29.944 
08:00	66.0	66.0	66.0	96	64.8	0	0	---	0.00	29.941 
08:05	66.4	66.4	66.4	97	65.5	0	0	---	0.00	29.941 
08:10	66.8	66.8	66.8	96	65.6	0	0	---	0.00	29.941 
08:15	67.1	67.1	67.1	96	65.9	0	0	---	0.00	29.939 
08:20	67.6	67.6	67.6	97	66.7	0	0	---	0.00	29.939 
08:25	67.9	67.9	67.9	96	66.7	0	0	---	0.00	29.939 
08:30	68.3	68.3	68.3	96	67.1	0	0	---	0.00	29.941 
08:35	68.4	68.4	68.4	96	67.2	0	1	270	0.00	29.941 
08:40	68.4	68.4	68.4	96	67.2	0	1	270	0.00	29.941 
08:45	68.8	68.8	68.8	96	67.6	0	0	---	0.00	29.938 
08:50	69.3	69.3	69.3	96	68.1	0	0	---	0.00	29.938 
08:55	69.8	69.8	69.8	96	68.6	0	0	---	0.00	29.938 
09:00	70.1	70.1	70.1	96	68.9	0	2	270	0.00	29.930 
09:05	70.4	70.4	70.4	96	69.2	0	1	270	0.00	29.930 
09:10	70.4	70.4	70.4	96	69.2	0	1	270	0.00	29.930 
09:15	70.4	70.4	70.4	96	69.2	0	1	270	0.00	29.926 
09:20	70.4	70.4	70.4	96	69.2	0	0	---	0.00	29.926 
09:25	70.3	70.3	70.3	96	69.1	0	1	270	0.00	29.926 
09:30	70.3	70.3	70.3	96	69.1	0	0	---	0.00	29.921 
09:35	70.1	70.1	70.1	96	68.9	0	1	270	0.00	29.921 
09:40	70.1	70.1	70.1	96	68.9	0	0	---	0.00	29.921 
09:45	70.3	70.3	70.3	96	69.1	0	1	270	0.00	29.914 
09:50	70.3	70.3	70.3	96	69.1	0	1	270	0.00	29.914 
09:55	70.3	70.3	70.3	96	69.1	0	0	---	0.00	29.914 
10:00	70.1	70.1	70.1	96	68.9	0	1	270	0.00	29.905 
10:05	70.1	70.1	70.1	96	68.9	0	1	270	0.00	29.905 
10:10	70.1	70.1	70.1	96	68.9	0	0	---	0.00	29.905 
10:15	70.3	70.3	70.3	95	68.8	0	1	270	0.00	29.899 
10:20	70.4	70.4	70.4	96	69.2	0	0	---	0.00	29.899 
10:25	71.1	71.1	71.1	96	69.9	0	1	270	0.00	29.899 
10:30	71.5	71.5	71.5	95	70.0	0	2	270	0.00	29.893 
10:35	71.8	71.8	71.8	94	70.0	0	2	270	0.00	29.893 
10:40	72.1	72.1	72.1	94	70.3	0	2	270	0.00	29.893 
10:45	72.8	72.8	72.8	93	70.7	0	1	270	0.00	29.894 
10:50	73.3	73.3	73.3	91	70.5	0	3	270	0.00	29.894 
10:55	74.4	74.4	74.4	89	70.9	0	1	68	0.00	29.894 
11:00	74.7	74.7	74.7	87	70.6	0	1	68	0.00	29.893 
11:05	74.9	74.9	74.9	84	69.7	0	2	68	0.00	29.893 
11:10	74.9	74.9	74.9	83	69.4	0	2	315	0.00	29.893 
11:15	75.4	75.4	76.0	81	69.1	0	4	90	0.00	29.893 
11:20	75.6	75.6	76.5	79	68.6	0	4	90	0.00	29.893 
11:25	75.8	75.8	76.9	78	68.4	0	2	45	0.00	29.893 
11:30	76.3	76.3	77.6	78	68.9	0	2	22	0.00	29.885 
11:35	77.0	77.0	78.7	76	68.8	1	4	90	0.00	29.885 
11:40	77.4	77.4	79.3	73	68.0	0	3	315	0.00	29.885 
11:45	77.7	77.7	79.7	73	68.3	0	3	338	0.00	29.876 
11:50	78.3	78.3	80.5	71	68.1	0	2	338	0.00	29.876 
11:55	78.8	78.8	81.1	70	68.2	0	3	338	0.00	29.876 
12:00	79.2	79.2	81.5	68	67.7	1	5	112	0.00	29.872 
12:05	79.6	79.6	82.3	70	68.9	0	1	112	0.00	29.872 
12:10	79.8	79.8	82.5	69	68.7	0	2	112	0.00	29.872 
12:15	79.6	79.6	82.1	68	68.1	0	2	112	0.00	29.870 
12:20	79.6	79.6	82.3	70	68.9	0	1	112	0.00	29.870 
12:25	80.1	80.1	83.0	69	69.0	1	4	112	0.00	29.870 
12:30	80.3	80.3	82.9	66	67.9	1	3	112	0.00	29.861 
12:35	80.3	80.3	83.2	68	68.8	1	4	90	0.00	29.861 
12:40	80.7	80.7	83.5	66	68.3	1	5	90	0.00	29.861 
12:45	80.9	80.9	83.7	65	68.0	0	3	90	0.00	29.862 
12:50	80.9	80.9	84.1	68	69.3	0	2	90	0.00	29.862 
12:55	80.7	80.7	83.7	67	68.7	0	1	90	0.00	29.862 
13:00	80.9	80.9	83.8	66	68.4	1	5	90	0.00	29.864 
13:05	81.6	81.6	85.1	67	69.6	0	3	90	0.00	29.864 
13:10	82.0	82.0	85.4	65	69.0	1	3	90	0.00	29.864 
13:15	82.4	82.4	86.7	68	70.8	1	3	90	0.00	29.860 
13:20	82.2	82.2	85.5	64	68.8	1	4	90	0.00	29.860 
13:25	81.6	81.6	84.6	64	68.2	0	1	90	0.00	29.860 
13:30	80.9	80.9	83.5	64	67.6	0	2	90	0.00	29.853 
13:35	80.3	80.3	82.8	65	67.4	0	2	90	0.00	29.853 
13:40	80.3	80.3	83.0	67	68.3	0	1	90	0.00	29.853 
13:45	81.1	81.1	84.3	67	69.1	0	3	90	0.00	29.844 
13:50	81.8	81.8	84.9	64	68.4	1	3	90	0.00	29.844 
13:55	82.0	82.0	84.8	62	67.7	0	2	90	0.00	29.844 
14:00	82.0	82.0	85.0	63	68.1	0	2	90	0.00	29.838 
14:05	81.8	81.8	84.9	64	68.4	0	2	90	0.00	29.838 
14:10	82.2	82.2	85.7	65	69.2	0	2	90	0.00	29.838 
14:15	82.0	82.0	84.6	61	67.2	1	3	90	0.00	29.837 
14:20	82.2	82.2	85.5	64	68.8	0	3	90	0.00	29.837 
14:25	82.8	82.8	86.1	62	68.4	0	3	90	0.00	29.837 
14:30	83.6	83.6	86.9	60	68.2	0	2	90	0.00	29.834 
14:35	83.8	83.8	86.9	59	67.9	1	5	68	0.00	29.834 
14:40	84.1	84.1	87.7	60	68.7	0	2	90	0.00	29.834 
14:45	84.0	84.0	87.3	59	68.1	1	4	68	0.00	29.831 
14:50	83.4	83.4	86.3	59	67.5	1	4	45	0.00	29.831 
14:55	83.2	83.2	86.5	61	68.3	0	2	45	0.00	29.831 
15:00	83.2	83.2	86.2	60	67.8	1	5	270	0.00	29.829 
15:05	82.8	82.8	85.8	61	67.9	0	2	112	0.00	29.829 
15:10	82.6	82.6	85.9	63	68.7	0	1	112	0.00	29.829 
15:15	82.4	82.4	85.4	62	68.0	0	1	112	0.00	29.822 
15:20	82.6	82.6	86.2	64	69.2	1	3	315	0.00	29.822 
15:25	82.6	82.6	85.5	61	67.8	1	3	0	0.00	29.822 
15:30	82.4	82.4	85.2	61	67.6	1	3	90	0.00	29.819 
15:35	82.2	82.2	85.1	62	67.9	0	3	90	0.00	29.819 
15:40	82.2	82.2	85.1	62	67.9	0	3	90	0.00	29.819 
15:45	82.6	82.6	85.5	61	67.8	0	2	90	0.00	29.816 
15:50	83.2	83.2	86.5	61	68.3	1	4	315	0.00	29.816 
15:55	83.4	83.4	86.3	59	67.5	0	5	90	0.00	29.816 
16:00	83.0	83.0	85.9	60	67.7	1	3	90	0.00	29.812 
16:05	82.8	82.8	85.6	60	67.5	0	2	135	0.00	29.812 
16:10	82.8	82.8	85.8	61	67.9	1	4	135	0.00	29.812 
16:15	82.8	82.8	85.6	60	67.5	1	3	202	0.00	29.813 
16:20	83.2	83.2	86.5	61	68.3	0	1	135	0.00	29.813 
16:25	83.4	83.4	86.5	60	68.0	0	4	90	0.00	29.813 
16:30	83.4	83.4	86.1	58	67.0	1	5	68	0.00	29.806 
16:35	83.2	83.2	86.0	59	67.4	0	2	68	0.00	29.806 
16:40	82.6	82.6	85.3	60	67.3	0	1	68	0.00	29.806 
16:45	82.8	82.8	85.8	61	67.9	0	3	68	0.00	29.803 
16:50	83.2	83.2	86.5	61	68.3	0	2	68	0.00	29.803 
16:55	83.4	83.4	86.8	61	68.5	1	3	68	0.00	29.803 
17:00	83.4	83.4	86.3	59	67.5	1	4	68	0.00	29.793 
17:05	83.4	83.4	86.3	59	67.5	1	3	112	0.00	29.793 
17:10	83.2	83.2	86.0	59	67.4	1	4	90	0.00	29.793 
17:15	83.0	83.0	85.9	60	67.7	0	2	90	0.00	29.791 
17:20	82.6	82.6	85.3	60	67.3	0	3	90	0.00	29.791 
17:25	82.2	82.2	84.7	60	66.9	1	3	90	0.00	29.791 
17:30	81.8	81.8	84.1	60	66.5	1	3	90	0.00	29.780 
17:35	81.8	81.8	84.5	62	67.5	0	1	90	0.00	29.780 
17:40	81.8	81.8	84.5	62	67.5	0	1	90	0.00	29.780 
17:45	81.8	81.8	84.5	62	67.5	0	1	90	0.00	29.775 
17:50	81.6	81.6	84.0	61	66.8	1	5	112	0.00	29.775 
17:55	81.4	81.4	83.9	62	67.1	0	2	112	0.00	29.775 
18:00	81.2	81.2	83.6	62	66.9	0	2	112	0.00	29.772 
18:05	81.1	81.1	83.5	62	66.8	0	3	135	0.00	29.772 
18:10	81.2	81.2	83.6	62	66.9	1	5	135	0.00	29.772 
18:15	81.6	81.6	84.2	62	67.3	1	4	68	0.00	29.761 
18:20	82.0	82.0	84.6	61	67.2	1	4	45	0.00	29.761 
18:25	82.2	82.2	85.1	62	67.9	0	1	68	0.00	29.761 
18:30	82.2	82.2	85.1	62	67.9	0	2	68	0.00	29.761 
18:35	82.0	82.0	84.6	61	67.2	0	3	315	0.00	29.761 
18:40	81.6	81.6	84.2	62	67.3	0	2	315	0.00	29.761 
18:45	81.4	81.4	83.9	62	67.1	0	2	315	0.00	29.758 
18:50	81.1	81.1	83.6	63	67.3	0	1	315	0.00	29.758 
18:55	80.9	80.9	83.7	65	68.0	0	2	315	0.00	29.758 
19:00	80.3	80.3	82.9	66	67.9	0	1	338	0.00	29.757 
19:05	80.1	80.1	82.9	68	68.6	0	0	---	0.00	29.757 
19:10	79.9	79.9	82.8	70	69.2	0	0	---	0.00	29.757 
19:15	79.6	79.6	82.3	70	68.9	0	1	338	0.00	29.751 
19:20	79.6	79.6	82.2	69	68.5	0	1	338	0.00	29.751 
19:25	79.6	79.6	82.2	69	68.5	0	2	338	0.00	29.751 
19:30	79.8	79.8	82.4	68	68.3	0	1	338	0.00	29.750 
19:35	79.9	79.9	82.5	67	67.9	0	2	338	0.00	29.750 
19:40	79.9	79.9	82.6	68	68.4	0	1	338	0.00	29.750 
19:45	79.9	79.9	82.6	68	68.4	0	1	338	0.00	29.760 
19:50	79.8	79.8	82.4	68	68.3	0	1	338	0.00	29.760 
19:55	79.8	79.8	82.4	68	68.3	0	1	338	0.00	29.760 
20:00	79.6	79.6	82.2	69	68.5	0	0	---	0.00	29.759 
20:05	79.4	79.4	81.9	69	68.3	0	1	315	0.00	29.759 
20:10	79.2	79.2	81.6	69	68.1	0	0	---	0.00	29.759 
20:15	79.2	79.2	81.6	69	68.1	0	1	315	0.00	29.758 
20:20	79.0	79.0	81.3	69	67.9	0	0	---	0.00	29.758 
20:25	78.8	78.8	81.1	69	67.7	0	1	315	0.00	29.758 
20:30	78.8	78.8	81.1	70	68.2	0	1	315	0.00	29.761 
20:35	78.6	78.6	80.8	70	68.0	0	1	315	0.00	29.761 
20:40	78.5	78.5	80.8	71	68.3	0	0	---	0.00	29.761 
20:45	78.3	78.3	80.5	72	68.5	0	0	---	0.00	29.762 
20:50	77.9	77.9	80.0	73	68.5	0	0	---	0.00	29.762 
20:55	77.7	77.7	79.7	73	68.3	0	0	---	0.00	29.762 
21:00	77.4	77.4	79.3	73	68.0	0	0	---	0.00	29.767 
21:05	77.2	77.2	79.0	74	68.3	0	0	---	0.00	29.767 
21:10	77.0	77.0	78.7	74	68.1	0	0	---	0.00	29.767 
21:15	76.8	76.8	78.4	75	68.3	0	0	---	0.00	29.769 
21:20	76.7	76.7	78.2	77	68.9	0	0	---	0.00	29.769 
21:25	76.3	76.3	77.6	77	68.5	0	0	---	0.00	29.769 
21:30	76.1	76.1	77.4	77	68.3	0	0	---	0.00	29.771 
21:35	76.0	76.0	77.2	78	68.6	0	0	---	0.00	29.771 
21:40	75.8	75.8	76.9	78	68.4	0	1	315	0.00	29.771 
21:45	75.8	75.8	76.8	79	68.8	0	0	---	0.00	29.773 
21:50	75.6	75.6	76.5	79	68.6	0	0	---	0.00	29.773 
21:55	75.4	75.4	76.1	80	68.8	0	0	---	0.00	29.773 
22:00	75.3	75.3	76.0	80	68.7	0	0	---	0.00	29.776 
22:05	75.1	75.1	75.6	81	68.9	0	0	---	0.00	29.776 
22:10	75.1	75.1	75.6	81	68.9	0	0	---	0.00	29.776 
22:15	74.9	74.9	74.9	81	68.7	0	0	---	0.00	29.773 
22:20	74.7	74.7	74.7	81	68.5	0	0	---	0.00	29.773 
22:25	74.6	74.6	74.6	82	68.7	0	0	---	0.00	29.773 
22:30	74.4	74.4	74.4	82	68.5	0	0	---	0.00	29.776 
22:35	74.2	74.2	74.2	83	68.7	0	0	---	0.00	29.776 
22:40	74.0	74.0	74.0	83	68.5	0	0	---	0.00	29.776 
22:45	74.0	74.0	74.0	83	68.5	0	0	---	0.00	29.777 
22:50	74.0	74.0	74.0	83	68.5	0	0	---	0.00	29.777 
22:55	73.9	73.9	73.9	84	68.7	0	0	---	0.00	29.777 
23:00	73.9	73.9	73.9	84	68.7	0	0	---	0.00	29.781 
23:05	73.7	73.7	73.7	84	68.6	0	0	---	0.00	29.781 
23:10	73.7	73.7	73.7	84	68.6	0	0	---	0.00	29.781 
23:15	73.7	73.7	73.7	84	68.6	0	0	---	0.00	29.781 
23:20	73.7	73.7	73.7	84	68.6	0	0	---	0.00	29.781 
23:25	73.5	73.5	73.5	84	68.4	0	0	---	0.00	29.781 
23:30	73.5	73.5	73.5	84	68.4	0	1	315	0.00	29.787 
23:35	73.5	73.5	73.5	84	68.4	0	0	---	0.00	29.787 
23:40	73.3	73.3	73.3	84	68.2	0	0	---	0.00	29.787 
23:45	73.3	73.3	73.3	85	68.5	0	0	---	0.00	29.787 
23:50	73.2	73.2	73.2	85	68.4	0	0	---	0.00	29.787 
23:55	73.2	73.2	73.2	85	68.4	0	0	---	0.00	29.787 

CoCoRaHS
IN-AL-39
A2 Web Hosting
Creative Commons License
GoDaddy
search engine by freefind advanced

loaded 2018-11-15 04:11:27 • last modified 2010-11-18 10:43:29
Privacy PolicyDisclaimer
• wx.awcolley.com is powered by PmWiki v.2002016 •
• all content (unless otherwise noted) © 2018 A W Colley